createdAt,value
2022-08-05T00:03:21.474Z,100532.00
2022-08-05T00:09:24.145Z,100530.00
2022-08-05T00:15:55.069Z,100518.00
2022-08-05T00:21:48.584Z,100523.00
2022-08-05T00:27:50.699Z,100519.00
2022-08-05T00:34:55.494Z,100516.00
2022-08-05T00:40:17.953Z,100510.00
2022-08-05T00:46:42.601Z,100510.00
2022-08-05T00:52:46.828Z,100513.00
2022-08-05T00:58:49.203Z,100508.00
2022-08-05T01:04:51.490Z,100500.00
2022-08-05T01:11:33.394Z,100500.00
2022-08-05T01:17:43.978Z,100499.00
2022-08-05T01:23:53.067Z,100501.00
2022-08-05T01:30:01.824Z,100496.00
2022-08-05T01:36:12.850Z,100492.00
2022-08-05T01:42:24.742Z,100488.00
2022-08-05T01:48:32.459Z,100496.00
2022-08-05T01:54:53.331Z,100491.00
2022-08-05T02:00:59.023Z,100490.00
2022-08-05T02:07:03.527Z,100487.00
2022-08-05T02:13:16.471Z,100494.00
2022-08-05T02:19:35.159Z,100480.00
2022-08-05T02:25:50.099Z,100482.00
2022-08-05T02:31:54.699Z,100486.00
2022-08-05T02:38:00.323Z,100485.00
2022-08-05T02:44:11.922Z,100484.00
2022-08-05T02:50:18.175Z,100492.00
2022-08-05T02:56:21.062Z,100495.00
2022-08-05T03:02:29.989Z,100491.00
2022-08-05T03:08:33.001Z,100495.00
2022-08-05T03:14:45.790Z,100512.00
2022-08-05T03:20:49.085Z,100500.00
2022-08-05T03:26:52.835Z,100501.00
2022-08-05T03:32:55.178Z,100504.00
2022-08-05T03:38:57.522Z,100502.00
2022-08-05T03:44:59.724Z,100504.00
2022-08-05T03:52:37.709Z,100504.00
2022-08-05T03:57:45.861Z,100511.00
2022-08-05T04:04:08.853Z,100516.00
2022-08-05T04:10:12.771Z,100507.00
2022-08-05T04:16:25.048Z,100507.00
2022-08-05T04:22:27.885Z,100498.00
2022-08-05T04:28:30.830Z,100492.00
2022-08-05T04:34:35.313Z,100491.00
2022-08-05T04:40:43.735Z,100491.00
2022-08-05T04:46:52.867Z,100488.00
2022-08-05T04:52:55.249Z,100486.00
2022-08-05T04:58:58.942Z,100482.00
2022-08-05T05:05:02.358Z,100483.00
2022-08-05T05:11:05.910Z,100476.00
2022-08-05T05:17:19.863Z,100469.00
2022-08-05T05:23:26.111Z,100467.00
2022-08-05T05:30:03.646Z,100469.00
2022-08-05T05:35:50.877Z,100466.00
2022-08-05T05:41:54.620Z,100466.00
2022-08-05T05:48:06.555Z,100472.00
2022-08-05T05:54:11.618Z,100464.00
2022-08-05T06:00:19.086Z,100402.00
2022-08-05T06:06:22.361Z,100399.00
2022-08-05T06:12:27.250Z,100410.00
2022-08-05T06:18:31.841Z,100416.00
2022-08-05T06:24:48.283Z,100418.00
2022-08-05T06:30:51.359Z,100426.00
2022-08-05T06:36:58.115Z,100424.00
2022-08-05T06:43:01.217Z,100424.00
2022-08-05T06:49:03.626Z,100429.00
2022-08-05T06:55:10.093Z,100431.00
2022-08-05T07:01:13.298Z,100428.00
2022-08-05T07:07:15.798Z,100430.00
2022-08-05T07:13:58.716Z,100416.00
2022-08-05T07:20:32.272Z,100423.00
2022-08-05T07:26:25.730Z,100421.00
2022-08-05T07:32:28.655Z,100423.00
2022-08-05T07:38:33.335Z,100418.00
2022-08-05T07:44:36.891Z,100420.00
2022-08-05T07:50:41.793Z,100430.00
2022-08-05T07:57:02.477Z,100421.00
2022-08-05T08:03:14.309Z,100422.00
2022-08-05T08:09:19.680Z,100423.00
2022-08-05T08:15:37.353Z,100425.00
2022-08-05T08:21:47.961Z,100424.00
2022-08-05T08:27:51.289Z,100421.00
2022-08-05T08:33:54.081Z,100418.00
2022-08-05T08:39:56.597Z,100411.00
2022-08-05T08:46:00.336Z,100405.00
2022-08-05T08:52:13.634Z,100397.00
2022-08-05T08:58:17.666Z,100383.00
2022-08-05T09:04:19.882Z,100383.00
2022-08-05T09:10:27.773Z,100366.00
2022-08-05T09:16:32.035Z,100372.00
2022-08-05T09:23:05.440Z,100370.00
2022-08-05T09:29:09.995Z,100366.00
2022-08-05T09:35:26.722Z,100353.00
2022-08-05T09:41:33.168Z,100346.00
2022-08-05T09:47:55.827Z,100340.00
2022-08-05T09:53:58.984Z,100346.00
2022-08-05T10:00:10.674Z,100343.00
2022-08-05T10:06:15.447Z,100324.00
2022-08-05T10:12:33.356Z,100406.00
2022-08-05T10:18:37.400Z,100322.00
2022-08-05T10:24:40.403Z,100330.00
2022-08-05T10:32:48.283Z,100325.00
2022-08-05T10:37:05.415Z,100385.00
2022-08-05T10:43:15.987Z,100384.00
2022-08-05T10:49:27.198Z,100316.00
2022-08-05T10:56:03.566Z,100317.00
2022-08-05T11:02:34.503Z,100365.00
2022-08-05T11:08:37.120Z,100310.00
2022-08-05T11:15:11.962Z,100326.00
2022-08-05T11:21:11.349Z,100308.00
2022-08-05T11:27:51.237Z,100350.00
2022-08-05T11:33:52.545Z,100309.00
2022-08-05T11:40:02.643Z,100341.00
2022-08-05T11:46:27.290Z,100294.00
2022-08-05T11:52:29.939Z,100285.00
2022-08-05T11:58:41.165Z,100274.00
2022-08-05T12:04:59.560Z,100314.00
2022-08-05T12:11:06.127Z,100307.00
2022-08-05T12:18:00.565Z,100195.00
2022-08-05T12:23:42.975Z,100210.00
2022-08-05T12:29:45.690Z,100215.00
2022-08-05T12:36:01.257Z,100204.00
2022-08-05T12:42:03.816Z,100193.00
2022-08-05T12:48:17.157Z,100304.00
2022-08-05T12:54:32.574Z,100192.00
2022-08-05T13:02:00.556Z,100243.00
2022-08-05T13:07:10.445Z,100240.00
2022-08-05T13:14:06.266Z,100241.00
2022-08-05T13:20:05.639Z,100243.00
2022-08-05T13:26:07.981Z,100246.00
2022-08-05T13:32:13.718Z,100236.00
2022-08-05T13:38:30.784Z,100238.00
2022-08-05T13:44:36.750Z,100255.00
2022-08-05T13:50:38.948Z,100233.00
2022-08-05T13:56:50.889Z,100223.00
2022-08-05T14:02:53.949Z,100238.00
2022-08-05T14:08:56.569Z,100232.00
2022-08-05T14:16:04.402Z,100228.00
2022-08-05T14:22:10.322Z,100216.00
2022-08-05T14:27:48.892Z,100210.00
2022-08-05T14:33:59.592Z,100196.00
2022-08-05T14:40:03.329Z,100199.00
2022-08-05T14:46:06.685Z,100202.00
2022-08-05T14:52:10.169Z,100202.00
2022-08-05T14:58:14.622Z,100201.00
2022-08-05T15:04:20.465Z,100191.00
2022-08-05T15:10:28.611Z,100187.00
2022-08-05T15:16:31.950Z,100177.00
2022-08-05T15:22:34.139Z,100173.00
2022-08-05T15:28:36.642Z,100173.00
2022-08-05T15:34:45.932Z,100183.00
2022-08-05T15:41:20.792Z,100179.00
2022-08-05T15:47:10.541Z,100173.00
2022-08-05T15:53:14.440Z,100173.00
2022-08-05T15:59:22.031Z,100177.00
2022-08-05T16:05:28.442Z,100174.00
2022-08-05T16:11:40.000Z,100172.00
2022-08-05T16:17:49.700Z,100170.00
2022-08-05T16:24:03.305Z,100177.00
2022-08-05T16:30:06.644Z,100170.00
2022-08-05T16:36:09.086Z,100170.00
2022-08-05T16:42:15.105Z,100172.00
2022-08-05T16:48:25.397Z,100177.00
2022-08-05T16:54:32.932Z,100192.00
2022-08-05T17:00:37.698Z,100195.00
2022-08-05T17:06:41.899Z,100199.00
2022-08-05T17:12:51.802Z,100206.00
2022-08-05T17:18:54.742Z,100205.00
2022-08-05T17:24:58.794Z,100211.00
2022-08-05T17:31:08.399Z,100214.00
2022-08-05T17:37:39.779Z,100219.00
2022-08-05T17:43:47.295Z,100227.00
2022-08-05T17:50:04.090Z,100220.00
2022-08-05T17:56:12.667Z,100228.00
2022-08-05T18:02:20.142Z,100225.00
2022-08-05T18:08:25.533Z,100235.00
2022-08-05T18:14:27.823Z,100237.00
2022-08-05T18:20:32.388Z,100248.00
2022-08-05T18:26:34.783Z,100256.00
2022-08-05T18:32:37.329Z,100255.00
2022-08-05T18:38:41.969Z,100258.00
2022-08-05T18:44:51.737Z,100258.00
2022-08-05T18:52:04.500Z,100253.00
2022-08-05T18:57:50.119Z,100262.00
2022-08-05T19:03:56.706Z,100263.00
2022-08-05T19:10:01.389Z,100261.00
2022-08-05T19:16:04.483Z,100263.00
2022-08-05T19:22:07.065Z,100257.00
2022-08-05T19:28:10.916Z,100260.00
2022-08-05T19:34:13.416Z,100262.00
2022-08-05T19:40:24.316Z,100259.00
2022-08-05T19:46:30.198Z,100260.00
2022-08-05T19:52:33.141Z,100271.00
2022-08-05T19:58:38.452Z,100273.00
2022-08-05T20:04:59.210Z,100268.00
2022-08-05T20:11:01.917Z,100263.00
2022-08-05T20:17:06.876Z,100263.00
2022-08-05T20:23:10.127Z,100259.00
2022-08-05T20:29:26.588Z,100264.00
2022-08-05T20:35:29.911Z,100267.00
2022-08-05T20:41:43.266Z,100270.00
2022-08-05T20:47:47.000Z,100273.00
2022-08-05T20:53:56.442Z,100256.00
2022-08-05T21:00:20.107Z,100257.00
2022-08-05T21:06:27.712Z,100258.00
2022-08-05T21:12:31.017Z,100252.00
2022-08-05T21:18:35.821Z,100244.00
2022-08-05T21:24:38.208Z,100245.00
2022-08-05T21:30:42.049Z,100247.00
2022-08-05T21:36:48.965Z,100244.00
2022-08-05T21:42:53.914Z,100235.00
2022-08-05T21:48:56.953Z,100244.00
2022-08-05T21:55:06.444Z,100251.00
2022-08-05T22:01:10.705Z,100236.00
2022-08-05T22:07:13.242Z,100243.00
2022-08-05T22:14:19.680Z,100241.00
2022-08-05T22:20:00.332Z,100228.00
2022-08-05T22:26:18.755Z,100229.00
2022-08-05T22:32:23.160Z,100236.00
2022-08-05T22:38:26.449Z,100228.00
2022-08-05T22:44:29.389Z,100228.00
2022-08-05T22:50:31.636Z,100217.00
2022-08-05T22:56:33.979Z,100229.00
2022-08-05T23:02:46.389Z,100229.00
2022-08-05T23:08:50.328Z,100229.00
2022-08-05T23:14:54.615Z,100224.00
2022-08-05T23:20:58.436Z,100218.00
2022-08-05T23:27:00.693Z,100222.00
2022-08-05T23:33:02.970Z,100216.00
2022-08-05T23:39:05.191Z,100220.00
2022-08-05T23:45:14.153Z,100217.00
2022-08-05T23:51:17.955Z,100208.00
2022-08-05T23:57:20.847Z,100213.00
